sensor_id;sensor_type;location;lat;lon;timestamp;temperature;humidity
23120;DHT22;11729;50.836;4.330;2023-02-15T00:00:21;6.40;99.90
23120;DHT22;11729;50.836;4.330;2023-02-15T00:02:47;6.30;99.90
23120;DHT22;11729;50.836;4.330;2023-02-15T00:05:13;6.30;99.90
23120;DHT22;11729;50.836;4.330;2023-02-15T00:07:39;6.20;99.90
23120;DHT22;11729;50.836;4.330;2023-02-15T00:10:05;6.20;99.90
23120;DHT22;11729;50.836;4.330;2023-02-15T00:12:31;6.10;99.90
23120;DHT22;11729;50.836;4.330;2023-02-15T00:14:57;6.10;99.90
23120;DHT22;11729;50.836;4.330;2023-02-15T00:17:22;6.20;99.90
23120;DHT22;11729;50.836;4.330;2023-02-15T00:19:48;6.30;99.90
23120;DHT22;11729;50.836;4.330;2023-02-15T00:22:14;6.20;99.90
23120;DHT22;11729;50.836;4.330;2023-02-15T00:24:40;6.20;99.90
23120;DHT22;11729;50.836;4.330;2023-02-15T00:27:06;6.10;99.90
23120;DHT22;11729;50.836;4.330;2023-02-15T00:29:32;6.10;99.90
23120;DHT22;11729;50.836;4.330;2023-02-15T00:31:57;6.20;99.90
23120;DHT22;11729;50.836;4.330;2023-02-15T00:34:25;6.10;99.90
23120;DHT22;11729;50.836;4.330;2023-02-15T00:36:51;6.20;99.90
23120;DHT22;11729;50.836;4.330;2023-02-15T00:39:17;6.10;99.90
23120;DHT22;11729;50.836;4.330;2023-02-15T00:41:43;6.20;99.90
23120;DHT22;11729;50.836;4.330;2023-02-15T00:44:09;6.20;99.90
23120;DHT22;11729;50.836;4.330;2023-02-15T00:46:34;6.10;99.90
23120;DHT22;11729;50.836;4.330;2023-02-15T00:49:00;6.00;99.90
23120;DHT22;11729;50.836;4.330;2023-02-15T00:51:26;6.00;99.90
23120;DHT22;11729;50.836;4.330;2023-02-15T00:53:52;5.90;99.90
23120;DHT22;11729;50.836;4.330;2023-02-15T00:56:18;5.90;99.90
23120;DHT22;11729;50.836;4.330;2023-02-15T00:58:43;5.90;99.90
23120;DHT22;11729;50.836;4.330;2023-02-15T01:01:18;5.80;99.90
23120;DHT22;11729;50.836;4.330;2023-02-15T01:03:45;5.80;99.90
23120;DHT22;11729;50.836;4.330;2023-02-15T01:06:12;5.80;99.90
23120;DHT22;11729;50.836;4.330;2023-02-15T01:08:38;5.70;99.90
23120;DHT22;11729;50.836;4.330;2023-02-15T01:11:06;5.70;99.90
23120;DHT22;11729;50.836;4.330;2023-02-15T01:13:32;5.70;99.90
23120;DHT22;11729;50.836;4.330;2023-02-15T01:15:58;5.60;99.90
23120;DHT22;11729;50.836;4.330;2023-02-15T01:18:24;5.60;99.90
23120;DHT22;11729;50.836;4.330;2023-02-15T01:20:49;5.60;99.90
23120;DHT22;11729;50.836;4.330;2023-02-15T01:23:15;5.60;99.90
23120;DHT22;11729;50.836;4.330;2023-02-15T01:25:41;5.60;99.90
23120;DHT22;11729;50.836;4.330;2023-02-15T01:28:06;5.60;99.90
23120;DHT22;11729;50.836;4.330;2023-02-15T01:30:32;5.60;99.90
23120;DHT22;11729;50.836;4.330;2023-02-15T01:32:58;5.60;99.90
23120;DHT22;11729;50.836;4.330;2023-02-15T01:35:24;5.50;99.90
23120;DHT22;11729;50.836;4.330;2023-02-15T01:37:49;5.60;99.90
23120;DHT22;11729;50.836;4.330;2023-02-15T01:40:16;5.70;99.90
23120;DHT22;11729;50.836;4.330;2023-02-15T01:42:43;5.70;99.90
23120;DHT22;11729;50.836;4.330;2023-02-15T01:45:30;5.60;99.90
23120;DHT22;11729;50.836;4.330;2023-02-15T01:48:17;5.50;99.90
23120;DHT22;11729;50.836;4.330;2023-02-15T01:50:53;5.50;99.90
23120;DHT22;11729;50.836;4.330;2023-02-15T01:53:34;5.50;99.90
23120;DHT22;11729;50.836;4.330;2023-02-15T01:56:06;5.40;99.90
23120;DHT22;11729;50.836;4.330;2023-02-15T01:58:35;5.40;99.90
23120;DHT22;11729;50.836;4.330;2023-02-15T02:01:02;5.30;99.90
23120;DHT22;11729;50.836;4.330;2023-02-15T02:03:41;5.30;99.90
23120;DHT22;11729;50.836;4.330;2023-02-15T02:06:09;5.30;99.90
23120;DHT22;11729;50.836;4.330;2023-02-15T02:08:35;5.30;99.90
23120;DHT22;11729;50.836;4.330;2023-02-15T02:11:01;5.30;99.90
23120;DHT22;11729;50.836;4.330;2023-02-15T02:13:26;5.30;99.90
23120;DHT22;11729;50.836;4.330;2023-02-15T02:16:05;5.20;99.90
23120;DHT22;11729;50.836;4.330;2023-02-15T02:21:35;5.10;99.90
23120;DHT22;11729;50.836;4.330;2023-02-15T02:27:37;5.10;99.90
23120;DHT22;11729;50.836;4.330;2023-02-15T02:36:40;5.10;99.90
23120;DHT22;11729;50.836;4.330;2023-02-15T02:39:49;5.00;99.90
23120;DHT22;11729;50.836;4.330;2023-02-15T02:42:49;5.10;99.90
23120;DHT22;11729;50.836;4.330;2023-02-15T02:45:28;5.00;99.90
23120;DHT22;11729;50.836;4.330;2023-02-15T02:48:08;5.00;99.90
23120;DHT22;11729;50.836;4.330;2023-02-15T02:50:34;5.00;99.90
23120;DHT22;11729;50.836;4.330;2023-02-15T02:53:00;5.00;99.90
23120;DHT22;11729;50.836;4.330;2023-02-15T02:58:17;5.00;99.90
23120;DHT22;11729;50.836;4.330;2023-02-15T03:00:56;5.00;99.90
23120;DHT22;11729;50.836;4.330;2023-02-15T03:03:52;5.00;99.90
23120;DHT22;11729;50.836;4.330;2023-02-15T03:06:49;5.00;99.90
23120;DHT22;11729;50.836;4.330;2023-02-15T03:09:29;5.00;99.90
23120;DHT22;11729;50.836;4.330;2023-02-15T03:12:00;5.00;99.90
23120;DHT22;11729;50.836;4.330;2023-02-15T03:14:28;4.90;99.90
23120;DHT22;11729;50.836;4.330;2023-02-15T03:16:55;5.00;99.90
23120;DHT22;11729;50.836;4.330;2023-02-15T03:19:28;5.00;99.90
23120;DHT22;11729;50.836;4.330;2023-02-15T03:22:07;4.90;99.90
23120;DHT22;11729;50.836;4.330;2023-02-15T03:24:59;4.90;99.90
23120;DHT22;11729;50.836;4.330;2023-02-15T03:27:35;4.90;99.90
23120;DHT22;11729;50.836;4.330;2023-02-15T03:30:23;4.90;99.90
23120;DHT22;11729;50.836;4.330;2023-02-15T03:32:50;4.90;99.90
23120;DHT22;11729;50.836;4.330;2023-02-15T03:35:17;4.80;99.90
23120;DHT22;11729;50.836;4.330;2023-02-15T03:37:48;4.80;99.90
23120;DHT22;11729;50.836;4.330;2023-02-15T03:40:31;4.90;99.90
23120;DHT22;11729;50.836;4.330;2023-02-15T03:46:20;4.80;99.90
23120;DHT22;11729;50.836;4.330;2023-02-15T03:48:52;4.80;99.90
23120;DHT22;11729;50.836;4.330;2023-02-15T03:51:21;4.80;99.90
23120;DHT22;11729;50.836;4.330;2023-02-15T03:54:47;4.80;99.90
23120;DHT22;11729;50.836;4.330;2023-02-15T04:00:03;4.70;99.90
23120;DHT22;11729;50.836;4.330;2023-02-15T04:03:36;4.70;99.90
23120;DHT22;11729;50.836;4.330;2023-02-15T04:05:37;4.70;99.90
23120;DHT22;11729;50.836;4.330;2023-02-15T04:08:02;4.70;99.90
23120;DHT22;11729;50.836;4.330;2023-02-15T04:10:28;4.60;99.90
23120;DHT22;11729;50.836;4.330;2023-02-15T04:13:12;4.60;99.90
23120;DHT22;11729;50.836;4.330;2023-02-15T04:15:38;4.70;99.90
23120;DHT22;11729;50.836;4.330;2023-02-15T04:18:22;4.60;99.90
23120;DHT22;11729;50.836;4.330;2023-02-15T04:21:06;4.60;99.90
23120;DHT22;11729;50.836;4.330;2023-02-15T04:23:50;4.70;99.90
23120;DHT22;11729;50.836;4.330;2023-02-15T04:26:34;4.70;99.90
23120;DHT22;11729;50.836;4.330;2023-02-15T04:28:59;4.70;99.90
23120;DHT22;11729;50.836;4.330;2023-02-15T04:31:25;4.60;99.90
23120;DHT22;11729;50.836;4.330;2023-02-15T04:33:51;4.70;99.90
23120;DHT22;11729;50.836;4.330;2023-02-15T04:36:16;4.70;99.90
23120;DHT22;11729;50.836;4.330;2023-02-15T04:38:42;4.70;99.90
23120;DHT22;11729;50.836;4.330;2023-02-15T04:41:07;4.70;99.90
23120;DHT22;11729;50.836;4.330;2023-02-15T04:43:34;4.70;99.90
23120;DHT22;11729;50.836;4.330;2023-02-15T04:45:59;4.60;99.90
23120;DHT22;11729;50.836;4.330;2023-02-15T04:48:25;4.60;99.90
23120;DHT22;11729;50.836;4.330;2023-02-15T04:50:50;4.50;99.90
23120;DHT22;11729;50.836;4.330;2023-02-15T04:53:16;4.40;99.90
23120;DHT22;11729;50.836;4.330;2023-02-15T04:55:43;4.30;99.90
23120;DHT22;11729;50.836;4.330;2023-02-15T04:58:09;4.30;99.90
23120;DHT22;11729;50.836;4.330;2023-02-15T05:00:34;4.20;99.90
23120;DHT22;11729;50.836;4.330;2023-02-15T05:03:00;4.10;99.90
23120;DHT22;11729;50.836;4.330;2023-02-15T05:05:26;4.20;99.90
23120;DHT22;11729;50.836;4.330;2023-02-15T05:07:52;4.20;99.90
23120;DHT22;11729;50.836;4.330;2023-02-15T05:10:18;4.30;99.90
23120;DHT22;11729;50.836;4.330;2023-02-15T05:12:43;4.20;99.90
23120;DHT22;11729;50.836;4.330;2023-02-15T05:15:10;4.20;99.90
23120;DHT22;11729;50.836;4.330;2023-02-15T05:17:36;4.20;99.90
23120;DHT22;11729;50.836;4.330;2023-02-15T05:20:02;4.10;99.90
23120;DHT22;11729;50.836;4.330;2023-02-15T05:22:28;4.10;99.90
23120;DHT22;11729;50.836;4.330;2023-02-15T05:24:54;4.00;99.90
23120;DHT22;11729;50.836;4.330;2023-02-15T05:27:38;4.10;99.90
23120;DHT22;11729;50.836;4.330;2023-02-15T05:30:23;4.20;99.90
23120;DHT22;11729;50.836;4.330;2023-02-15T05:32:49;4.30;99.90
23120;DHT22;11729;50.836;4.330;2023-02-15T05:35:15;4.20;99.90
23120;DHT22;11729;50.836;4.330;2023-02-15T05:37:41;4.20;99.90
23120;DHT22;11729;50.836;4.330;2023-02-15T05:40:08;4.20;99.90
23120;DHT22;11729;50.836;4.330;2023-02-15T05:42:34;4.20;99.90
23120;DHT22;11729;50.836;4.330;2023-02-15T05:45:01;4.10;99.90
23120;DHT22;11729;50.836;4.330;2023-02-15T05:47:29;4.10;99.90
23120;DHT22;11729;50.836;4.330;2023-02-15T05:49:54;4.00;99.90
23120;DHT22;11729;50.836;4.330;2023-02-15T05:52:20;4.00;99.90
23120;DHT22;11729;50.836;4.330;2023-02-15T05:54:45;3.90;99.90
23120;DHT22;11729;50.836;4.330;2023-02-15T05:57:11;3.90;99.90
23120;DHT22;11729;50.836;4.330;2023-02-15T05:59:36;3.90;99.90
23120;DHT22;11729;50.836;4.330;2023-02-15T06:02:02;3.90;99.90
23120;DHT22;11729;50.836;4.330;2023-02-15T06:04:27;3.80;99.90
23120;DHT22;11729;50.836;4.330;2023-02-15T06:06:53;3.90;99.90
23120;DHT22;11729;50.836;4.330;2023-02-15T06:09:19;3.80;99.90
23120;DHT22;11729;50.836;4.330;2023-02-15T06:11:46;3.90;99.90
23120;DHT22;11729;50.836;4.330;2023-02-15T06:14:11;3.80;99.90
23120;DHT22;11729;50.836;4.330;2023-02-15T06:16:37;3.80;99.90
23120;DHT22;11729;50.836;4.330;2023-02-15T06:19:03;3.80;99.90
23120;DHT22;11729;50.836;4.330;2023-02-15T06:21:30;3.80;99.90
23120;DHT22;11729;50.836;4.330;2023-02-15T06:23:56;3.80;99.90
23120;DHT22;11729;50.836;4.330;2023-02-15T06:26:22;3.80;99.90
23120;DHT22;11729;50.836;4.330;2023-02-15T06:28:47;3.90;99.90
23120;DHT22;11729;50.836;4.330;2023-02-15T06:31:13;4.00;99.90
23120;DHT22;11729;50.836;4.330;2023-02-15T06:33:38;4.00;99.90
23120;DHT22;11729;50.836;4.330;2023-02-15T06:36:04;4.00;99.90
23120;DHT22;11729;50.836;4.330;2023-02-15T06:38:30;4.00;99.90
23120;DHT22;11729;50.836;4.330;2023-02-15T06:40:56;4.00;99.90
23120;DHT22;11729;50.836;4.330;2023-02-15T06:43:21;4.00;99.90
23120;DHT22;11729;50.836;4.330;2023-02-15T06:45:47;3.90;99.90
23120;DHT22;11729;50.836;4.330;2023-02-15T06:48:14;3.90;99.90
23120;DHT22;11729;50.836;4.330;2023-02-15T06:50:39;3.90;99.90
23120;DHT22;11729;50.836;4.330;2023-02-15T06:53:05;3.90;99.90
23120;DHT22;11729;50.836;4.330;2023-02-15T06:55:32;3.90;99.90
23120;DHT22;11729;50.836;4.330;2023-02-15T06:57:57;3.90;99.90
23120;DHT22;11729;50.836;4.330;2023-02-15T07:00:23;3.90;99.90
23120;DHT22;11729;50.836;4.330;2023-02-15T07:02:56;4.00;99.90
23120;DHT22;11729;50.836;4.330;2023-02-15T07:05:23;4.00;99.90
23120;DHT22;11729;50.836;4.330;2023-02-15T07:07:49;4.00;99.90
23120;DHT22;11729;50.836;4.330;2023-02-15T07:10:15;4.10;99.90
23120;DHT22;11729;50.836;4.330;2023-02-15T07:12:40;4.10;99.90
23120;DHT22;11729;50.836;4.330;2023-02-15T07:15:15;4.10;99.90
23120;DHT22;11729;50.836;4.330;2023-02-15T07:17:42;4.10;99.90
23120;DHT22;11729;50.836;4.330;2023-02-15T07:20:17;4.10;99.90
23120;DHT22;11729;50.836;4.330;2023-02-15T07:22:43;4.10;99.90
23120;DHT22;11729;50.836;4.330;2023-02-15T07:25:11;4.10;99.90
23120;DHT22;11729;50.836;4.330;2023-02-15T07:27:37;4.20;99.90
23120;DHT22;11729;50.836;4.330;2023-02-15T07:30:05;4.20;99.90
23120;DHT22;11729;50.836;4.330;2023-02-15T07:32:32;4.30;99.90
23120;DHT22;11729;50.836;4.330;2023-02-15T07:34:59;4.40;99.90
23120;DHT22;11729;50.836;4.330;2023-02-15T07:37:25;4.50;99.90
23120;DHT22;11729;50.836;4.330;2023-02-15T07:39:51;4.60;99.90
23120;DHT22;11729;50.836;4.330;2023-02-15T07:42:17;4.60;99.90
23120;DHT22;11729;50.836;4.330;2023-02-15T07:44:45;4.50;99.90
23120;DHT22;11729;50.836;4.330;2023-02-15T07:47:10;4.60;99.90
23120;DHT22;11729;50.836;4.330;2023-02-15T07:49:37;4.70;99.90
23120;DHT22;11729;50.836;4.330;2023-02-15T07:52:03;4.70;99.90
23120;DHT22;11729;50.836;4.330;2023-02-15T07:54:29;4.80;99.90
23120;DHT22;11729;50.836;4.330;2023-02-15T07:56:55;4.90;99.90
23120;DHT22;11729;50.836;4.330;2023-02-15T07:59:21;5.10;99.90
23120;DHT22;11729;50.836;4.330;2023-02-15T08:01:46;5.20;99.90
23120;DHT22;11729;50.836;4.330;2023-02-15T08:04:12;5.30;99.90
23120;DHT22;11729;50.836;4.330;2023-02-15T08:06:38;5.30;99.90
23120;DHT22;11729;50.836;4.330;2023-02-15T08:09:08;5.30;99.90
23120;DHT22;11729;50.836;4.330;2023-02-15T08:11:35;5.40;99.90
23120;DHT22;11729;50.836;4.330;2023-02-15T08:19:11;5.50;99.90
23120;DHT22;11729;50.836;4.330;2023-02-15T08:21:38;5.70;99.90
23120;DHT22;11729;50.836;4.330;2023-02-15T08:24:05;6.00;99.90
23120;DHT22;11729;50.836;4.330;2023-02-15T08:26:31;6.40;99.90
23120;DHT22;11729;50.836;4.330;2023-02-15T08:28:58;7.00;99.90
23120;DHT22;11729;50.836;4.330;2023-02-15T08:31:25;7.50;99.90
23120;DHT22;11729;50.836;4.330;2023-02-15T08:33:52;8.00;99.90
23120;DHT22;11729;50.836;4.330;2023-02-15T08:36:21;8.10;99.90
23120;DHT22;11729;50.836;4.330;2023-02-15T08:38:47;8.50;99.90
23120;DHT22;11729;50.836;4.330;2023-02-15T08:41:17;9.00;99.90
23120;DHT22;11729;50.836;4.330;2023-02-15T08:43:45;9.20;99.90
23120;DHT22;11729;50.836;4.330;2023-02-15T08:46:12;9.60;99.90
23120;DHT22;11729;50.836;4.330;2023-02-15T08:48:39;10.00;99.90
23120;DHT22;11729;50.836;4.330;2023-02-15T08:51:08;10.60;99.90
23120;DHT22;11729;50.836;4.330;2023-02-15T08:53:37;11.20;99.90
23120;DHT22;11729;50.836;4.330;2023-02-15T08:56:03;11.60;99.90
23120;DHT22;11729;50.836;4.330;2023-02-15T08:58:29;11.70;99.90
23120;DHT22;11729;50.836;4.330;2023-02-15T09:00:56;11.80;99.90
23120;DHT22;11729;50.836;4.330;2023-02-15T09:03:22;11.50;99.90
23120;DHT22;11729;50.836;4.330;2023-02-15T09:05:48;11.50;99.90
23120;DHT22;11729;50.836;4.330;2023-02-15T09:08:14;11.20;99.90
23120;DHT22;11729;50.836;4.330;2023-02-15T09:10:40;10.90;99.90
23120;DHT22;11729;50.836;4.330;2023-02-15T09:13:06;10.90;99.90
23120;DHT22;11729;50.836;4.330;2023-02-15T09:15:32;10.70;99.90
23120;DHT22;11729;50.836;4.330;2023-02-15T09:17:58;10.60;99.90
23120;DHT22;11729;50.836;4.330;2023-02-15T09:20:27;10.30;99.90
23120;DHT22;11729;50.836;4.330;2023-02-15T09:22:54;10.20;99.90
23120;DHT22;11729;50.836;4.330;2023-02-15T09:25:20;10.30;99.90
23120;DHT22;11729;50.836;4.330;2023-02-15T09:27:45;10.20;99.90
23120;DHT22;11729;50.836;4.330;2023-02-15T09:30:12;10.10;99.90
23120;DHT22;11729;50.836;4.330;2023-02-15T09:32:38;10.10;99.90
23120;DHT22;11729;50.836;4.330;2023-02-15T09:35:04;10.20;99.90
23120;DHT22;11729;50.836;4.330;2023-02-15T09:37:30;10.40;99.90
23120;DHT22;11729;50.836;4.330;2023-02-15T09:39:57;10.30;99.90
23120;DHT22;11729;50.836;4.330;2023-02-15T09:56:29;10.60;99.90
23120;DHT22;11729;50.836;4.330;2023-02-15T10:04:47;10.80;99.90
23120;DHT22;11729;50.836;4.330;2023-02-15T10:18:55;11.30;99.90
23120;DHT22;11729;50.836;4.330;2023-02-15T10:25:07;11.60;99.90
23120;DHT22;11729;50.836;4.330;2023-02-15T10:27:45;11.80;99.90
23120;DHT22;11729;50.836;4.330;2023-02-15T10:30:14;11.90;99.90
23120;DHT22;11729;50.836;4.330;2023-02-15T10:32:50;12.00;99.90
23120;DHT22;11729;50.836;4.330;2023-02-15T10:35:36;12.10;99.90
23120;DHT22;11729;50.836;4.330;2023-02-15T10:57:16;12.40;99.90
23120;DHT22;11729;50.836;4.330;2023-02-15T11:03:02;12.60;99.90
23120;DHT22;11729;50.836;4.330;2023-02-15T11:08:24;13.10;99.90
23120;DHT22;11729;50.836;4.330;2023-02-15T11:10:54;13.20;99.90
23120;DHT22;11729;50.836;4.330;2023-02-15T11:13:26;13.70;99.90
23120;DHT22;11729;50.836;4.330;2023-02-15T11:18:34;14.10;99.90
23120;DHT22;11729;50.836;4.330;2023-02-15T11:21:22;14.40;99.90
23120;DHT22;11729;50.836;4.330;2023-02-15T11:23:49;14.50;99.90
23120;DHT22;11729;50.836;4.330;2023-02-15T11:26:28;14.50;99.90
23120;DHT22;11729;50.836;4.330;2023-02-15T11:29:57;14.70;99.90
23120;DHT22;11729;50.836;4.330;2023-02-15T11:32:24;15.00;99.90
23120;DHT22;11729;50.836;4.330;2023-02-15T11:34:54;15.50;99.90
23120;DHT22;11729;50.836;4.330;2023-02-15T11:37:27;15.90;99.90
23120;DHT22;11729;50.836;4.330;2023-02-15T11:39:54;16.40;99.90
23120;DHT22;11729;50.836;4.330;2023-02-15T11:42:22;17.00;99.90
23120;DHT22;11729;50.836;4.330;2023-02-15T11:47:39;17.80;99.90
23120;DHT22;11729;50.836;4.330;2023-02-15T11:50:05;18.00;99.90
23120;DHT22;11729;50.836;4.330;2023-02-15T11:52:31;18.30;99.50
23120;DHT22;11729;50.836;4.330;2023-02-15T11:54:57;18.50;99.00
23120;DHT22;11729;50.836;4.330;2023-02-15T11:57:30;18.50;97.90
23120;DHT22;11729;50.836;4.330;2023-02-15T12:02:33;18.00;96.80
23120;DHT22;11729;50.836;4.330;2023-02-15T12:05:15;18.10;97.20
23120;DHT22;11729;50.836;4.330;2023-02-15T12:07:47;18.50;97.30
23120;DHT22;11729;50.836;4.330;2023-02-15T12:10:22;18.30;96.70
23120;DHT22;11729;50.836;4.330;2023-02-15T12:13:15;18.40;96.50
23120;DHT22;11729;50.836;4.330;2023-02-15T12:15:44;18.20;97.10
23120;DHT22;11729;50.836;4.330;2023-02-15T12:21:09;17.20;98.80
23120;DHT22;11729;50.836;4.330;2023-02-15T12:23:47;17.00;99.00
23120;DHT22;11729;50.836;4.330;2023-02-15T12:26:14;16.90;99.50
23120;DHT22;11729;50.836;4.330;2023-02-15T12:28:42;17.00;99.40
23120;DHT22;11729;50.836;4.330;2023-02-15T12:31:20;17.10;99.90
23120;DHT22;11729;50.836;4.330;2023-02-15T12:33:47;17.30;99.50
23120;DHT22;11729;50.836;4.330;2023-02-15T12:36:20;17.80;98.40
23120;DHT22;11729;50.836;4.330;2023-02-15T12:39:18;18.00;97.90
23120;DHT22;11729;50.836;4.330;2023-02-15T12:44:23;19.20;96.30
23120;DHT22;11729;50.836;4.330;2023-02-15T12:47:01;19.70;93.90
23120;DHT22;11729;50.836;4.330;2023-02-15T12:49:29;20.10;93.10
23120;DHT22;11729;50.836;4.330;2023-02-15T12:54:46;21.00;91.80
23120;DHT22;11729;50.836;4.330;2023-02-15T12:57:25;21.40;90.50
23120;DHT22;11729;50.836;4.330;2023-02-15T12:59:54;21.60;87.00
23120;DHT22;11729;50.836;4.330;2023-02-15T13:02:36;21.20;86.40
23120;DHT22;11729;50.836;4.330;2023-02-15T13:05:33;21.00;87.00
23120;DHT22;11729;50.836;4.330;2023-02-15T13:10:41;20.80;88.30
23120;DHT22;11729;50.836;4.330;2023-02-15T13:13:26;20.90;86.90
23120;DHT22;11729;50.836;4.330;2023-02-15T13:16:29;21.20;85.50
23120;DHT22;11729;50.836;4.330;2023-02-15T13:18:46;20.90;85.20
23120;DHT22;11729;50.836;4.330;2023-02-15T13:21:24;20.70;86.70
23120;DHT22;11729;50.836;4.330;2023-02-15T13:23:53;20.90;86.90
23120;DHT22;11729;50.836;4.330;2023-02-15T13:26:23;20.70;86.60
23120;DHT22;11729;50.836;4.330;2023-02-15T13:28:56;20.80;86.50
23120;DHT22;11729;50.836;4.330;2023-02-15T13:31:26;21.00;86.20
23120;DHT22;11729;50.836;4.330;2023-02-15T13:34:32;20.90;85.70
23120;DHT22;11729;50.836;4.330;2023-02-15T13:37:12;20.60;86.00
23120;DHT22;11729;50.836;4.330;2023-02-15T13:40:02;20.40;88.30
23120;DHT22;11729;50.836;4.330;2023-02-15T13:42:39;20.20;88.10
23120;DHT22;11729;50.836;4.330;2023-02-15T14:07:36;20.40;90.20
23120;DHT22;11729;50.836;4.330;2023-02-15T14:18:26;20.00;91.00
23120;DHT22;11729;50.836;4.330;2023-02-15T14:26:07;18.80;92.30
23120;DHT22;11729;50.836;4.330;2023-02-15T14:31:29;17.80;94.20
23120;DHT22;11729;50.836;4.330;2023-02-15T14:33:57;17.30;95.80
23120;DHT22;11729;50.836;4.330;2023-02-15T14:36:24;16.80;97.20
23120;DHT22;11729;50.836;4.330;2023-02-15T14:39:23;16.50;98.50
23120;DHT22;11729;50.836;4.330;2023-02-15T14:47:43;15.70;99.90
23120;DHT22;11729;50.836;4.330;2023-02-15T14:50:40;15.60;99.90
23120;DHT22;11729;50.836;4.330;2023-02-15T14:55:42;15.20;99.90
23120;DHT22;11729;50.836;4.330;2023-02-15T14:58:12;15.10;99.90
23120;DHT22;11729;50.836;4.330;2023-02-15T15:00:39;15.00;99.90
23120;DHT22;11729;50.836;4.330;2023-02-15T15:03:20;14.90;99.90
23120;DHT22;11729;50.836;4.330;2023-02-15T15:05:50;14.70;99.90
23120;DHT22;11729;50.836;4.330;2023-02-15T15:08:31;14.60;99.90
23120;DHT22;11729;50.836;4.330;2023-02-15T15:13:58;14.70;99.90
23120;DHT22;11729;50.836;4.330;2023-02-15T15:19:10;14.70;99.90
23120;DHT22;11729;50.836;4.330;2023-02-15T15:21:56;14.80;99.90
23120;DHT22;11729;50.836;4.330;2023-02-15T15:27:48;14.70;99.90
23120;DHT22;11729;50.836;4.330;2023-02-15T15:32:42;14.60;99.90
23120;DHT22;11729;50.836;4.330;2023-02-15T15:46:53;14.20;99.90
23120;DHT22;11729;50.836;4.330;2023-02-15T15:49:24;14.20;99.90
23120;DHT22;11729;50.836;4.330;2023-02-15T15:51:54;14.10;99.90
23120;DHT22;11729;50.836;4.330;2023-02-15T15:54:22;14.00;99.90
23120;DHT22;11729;50.836;4.330;2023-02-15T15:56:55;13.90;99.90
23120;DHT22;11729;50.836;4.330;2023-02-15T15:59:26;13.90;99.90
23120;DHT22;11729;50.836;4.330;2023-02-15T16:01:52;13.90;99.90
23120;DHT22;11729;50.836;4.330;2023-02-15T16:04:25;13.90;99.90
23120;DHT22;11729;50.836;4.330;2023-02-15T16:06:51;13.80;99.90
23120;DHT22;11729;50.836;4.330;2023-02-15T16:09:20;13.70;99.90
23120;DHT22;11729;50.836;4.330;2023-02-15T16:11:54;13.70;99.90
23120;DHT22;11729;50.836;4.330;2023-02-15T16:14:36;13.60;99.90
23120;DHT22;11729;50.836;4.330;2023-02-15T16:17:05;13.50;99.90
23120;DHT22;11729;50.836;4.330;2023-02-15T16:19:35;13.40;99.90
23120;DHT22;11729;50.836;4.330;2023-02-15T16:22:03;13.30;99.90
23120;DHT22;11729;50.836;4.330;2023-02-15T16:29:42;13.20;99.90
23120;DHT22;11729;50.836;4.330;2023-02-15T16:34:59;13.10;99.90
23120;DHT22;11729;50.836;4.330;2023-02-15T16:37:33;13.10;99.90
23120;DHT22;11729;50.836;4.330;2023-02-15T16:39:59;13.00;99.90
23120;DHT22;11729;50.836;4.330;2023-02-15T16:42:25;13.00;99.90
23120;DHT22;11729;50.836;4.330;2023-02-15T16:44:57;12.90;99.90
23120;DHT22;11729;50.836;4.330;2023-02-15T16:47:28;12.80;99.90
23120;DHT22;11729;50.836;4.330;2023-02-15T16:49:57;12.70;99.90
23120;DHT22;11729;50.836;4.330;2023-02-15T16:52:25;12.50;99.90
23120;DHT22;11729;50.836;4.330;2023-02-15T16:54:58;12.30;99.90
23120;DHT22;11729;50.836;4.330;2023-02-15T16:57:27;12.30;99.90
23120;DHT22;11729;50.836;4.330;2023-02-15T16:59:56;12.20;99.90
23120;DHT22;11729;50.836;4.330;2023-02-15T17:02:29;12.10;99.90
23120;DHT22;11729;50.836;4.330;2023-02-15T17:05:15;12.10;99.90
23120;DHT22;11729;50.836;4.330;2023-02-15T17:10:37;11.90;99.90
23120;DHT22;11729;50.836;4.330;2023-02-15T17:13:25;11.80;99.90
23120;DHT22;11729;50.836;4.330;2023-02-15T17:18:46;11.60;99.90
23120;DHT22;11729;50.836;4.330;2023-02-15T17:21:25;11.60;99.90
23120;DHT22;11729;50.836;4.330;2023-02-15T17:23:58;11.60;99.90
23120;DHT22;11729;50.836;4.330;2023-02-15T17:26:31;11.50;99.90
23120;DHT22;11729;50.836;4.330;2023-02-15T17:28:59;11.60;99.90
23120;DHT22;11729;50.836;4.330;2023-02-15T17:31:30;11.60;99.90
23120;DHT22;11729;50.836;4.330;2023-02-15T17:33:58;11.60;99.90
23120;DHT22;11729;50.836;4.330;2023-02-15T17:36:29;11.60;99.90
23120;DHT22;11729;50.836;4.330;2023-02-15T17:41:25;11.50;99.90
23120;DHT22;11729;50.836;4.330;2023-02-15T17:43:51;11.50;99.90
23120;DHT22;11729;50.836;4.330;2023-02-15T17:46:16;11.60;99.90
23120;DHT22;11729;50.836;4.330;2023-02-15T17:48:46;11.50;99.90
23120;DHT22;11729;50.836;4.330;2023-02-15T17:51:13;11.50;99.90
23120;DHT22;11729;50.836;4.330;2023-02-15T17:53:40;11.40;99.90
23120;DHT22;11729;50.836;4.330;2023-02-15T17:56:06;11.30;99.90
23120;DHT22;11729;50.836;4.330;2023-02-15T17:58:38;11.30;99.90
23120;DHT22;11729;50.836;4.330;2023-02-15T18:01:10;11.30;99.90
23120;DHT22;11729;50.836;4.330;2023-02-15T18:03:56;11.30;99.90
23120;DHT22;11729;50.836;4.330;2023-02-15T18:06:42;11.40;99.90
23120;DHT22;11729;50.836;4.330;2023-02-15T18:09:26;11.40;99.90
23120;DHT22;11729;50.836;4.330;2023-02-15T18:12:29;11.40;99.90
23120;DHT22;11729;50.836;4.330;2023-02-15T18:14:56;11.30;99.90
23120;DHT22;11729;50.836;4.330;2023-02-15T18:20:00;11.20;99.90
23120;DHT22;11729;50.836;4.330;2023-02-15T18:22:27;11.10;99.90
23120;DHT22;11729;50.836;4.330;2023-02-15T18:24:55;11.00;99.90
23120;DHT22;11729;50.836;4.330;2023-02-15T18:27:20;11.10;99.90
23120;DHT22;11729;50.836;4.330;2023-02-15T18:29:46;11.00;99.90
23120;DHT22;11729;50.836;4.330;2023-02-15T18:32:21;11.00;99.90
23120;DHT22;11729;50.836;4.330;2023-02-15T18:34:49;11.00;99.90
23120;DHT22;11729;50.836;4.330;2023-02-15T18:37:17;11.00;99.90
23120;DHT22;11729;50.836;4.330;2023-02-15T18:39:53;11.10;99.90
23120;DHT22;11729;50.836;4.330;2023-02-15T18:42:29;11.00;99.90
23120;DHT22;11729;50.836;4.330;2023-02-15T18:45:21;10.80;99.90
23120;DHT22;11729;50.836;4.330;2023-02-15T18:47:48;10.70;99.90
23120;DHT22;11729;50.836;4.330;2023-02-15T18:50:16;10.70;99.90
23120;DHT22;11729;50.836;4.330;2023-02-15T18:52:44;10.70;99.90
23120;DHT22;11729;50.836;4.330;2023-02-15T18:55:24;10.70;99.90
23120;DHT22;11729;50.836;4.330;2023-02-15T18:57:52;10.70;99.90
23120;DHT22;11729;50.836;4.330;2023-02-15T19:00:20;10.60;99.90
23120;DHT22;11729;50.836;4.330;2023-02-15T19:02:47;10.50;99.90
23120;DHT22;11729;50.836;4.330;2023-02-15T19:05:13;10.60;99.90
23120;DHT22;11729;50.836;4.330;2023-02-15T19:07:43;10.50;99.90
23120;DHT22;11729;50.836;4.330;2023-02-15T19:10:15;10.50;99.90
23120;DHT22;11729;50.836;4.330;2023-02-15T19:12:42;10.40;99.90
23120;DHT22;11729;50.836;4.330;2023-02-15T19:15:22;10.40;99.90
23120;DHT22;11729;50.836;4.330;2023-02-15T19:17:48;10.30;99.90